sensor_id;sensor_type;location;lat;lon;timestamp;P1;durP1;ratioP1;P2;durP2;ratioP2
43048;SDS011;28673;44.412;11.918;2023-07-13T00:00:41;22.52;;;6.20;;
43048;SDS011;28673;44.412;11.918;2023-07-13T00:03:07;13.48;;;6.45;;
43048;SDS011;28673;44.412;11.918;2023-07-13T00:05:33;14.07;;;6.47;;
43048;SDS011;28673;44.412;11.918;2023-07-13T00:07:59;17.20;;;5.70;;
43048;SDS011;28673;44.412;11.918;2023-07-13T00:10:25;17.52;;;4.78;;
43048;SDS011;28673;44.412;11.918;2023-07-13T00:12:51;29.17;;;5.30;;
43048;SDS011;28673;44.412;11.918;2023-07-13T00:15:21;22.92;;;4.88;;
43048;SDS011;28673;44.412;11.918;2023-07-13T00:17:49;22.55;;;4.80;;
43048;SDS011;28673;44.412;11.918;2023-07-13T00:22:51;23.85;;;4.75;;
43048;SDS011;28673;44.412;11.918;2023-07-13T00:25:19;23.55;;;4.25;;
43048;SDS011;28673;44.412;11.918;2023-07-13T00:27:47;24.20;;;4.57;;
43048;SDS011;28673;44.412;11.918;2023-07-13T00:30:16;17.65;;;3.67;;
43048;SDS011;28673;44.412;11.918;2023-07-13T00:32:43;21.45;;;3.70;;
43048;SDS011;28673;44.412;11.918;2023-07-13T00:35:09;19.15;;;5.30;;
43048;SDS011;28673;44.412;11.918;2023-07-13T00:37:35;21.27;;;4.03;;
43048;SDS011;28673;44.412;11.918;2023-07-13T00:40:02;9.55;;;3.15;;
43048;SDS011;28673;44.412;11.918;2023-07-13T00:42:29;15.13;;;3.80;;
43048;SDS011;28673;44.412;11.918;2023-07-13T00:47:28;15.82;;;3.50;;
43048;SDS011;28673;44.412;11.918;2023-07-13T00:49:54;20.67;;;3.92;;
43048;SDS011;28673;44.412;11.918;2023-07-13T00:52:20;17.48;;;3.55;;
43048;SDS011;28673;44.412;11.918;2023-07-13T00:54:46;19.08;;;3.35;;
43048;SDS011;28673;44.412;11.918;2023-07-13T00:57:14;21.67;;;4.32;;
43048;SDS011;28673;44.412;11.918;2023-07-13T00:59:43;26.50;;;4.18;;
43048;SDS011;28673;44.412;11.918;2023-07-13T01:02:13;15.10;;;3.97;;
43048;SDS011;28673;44.412;11.918;2023-07-13T01:04:39;22.95;;;3.78;;
43048;SDS011;28673;44.412;11.918;2023-07-13T01:09:36;15.82;;;4.28;;
43048;SDS011;28673;44.412;11.918;2023-07-13T01:12:03;25.30;;;4.10;;
43048;SDS011;28673;44.412;11.918;2023-07-13T01:14:30;11.05;;;4.13;;
43048;SDS011;28673;44.412;11.918;2023-07-13T01:16:57;15.90;;;3.75;;
43048;SDS011;28673;44.412;11.918;2023-07-13T01:22:03;17.08;;;4.65;;
43048;SDS011;28673;44.412;11.918;2023-07-13T01:24:34;15.15;;;4.07;;
43048;SDS011;28673;44.412;11.918;2023-07-13T01:27:01;12.18;;;4.75;;
43048;SDS011;28673;44.412;11.918;2023-07-13T01:29:29;16.00;;;3.80;;
43048;SDS011;28673;44.412;11.918;2023-07-13T01:31:56;6.63;;;2.95;;
43048;SDS011;28673;44.412;11.918;2023-07-13T01:34:24;17.50;;;4.10;;
43048;SDS011;28673;44.412;11.918;2023-07-13T01:36:51;18.42;;;3.53;;
43048;SDS011;28673;44.412;11.918;2023-07-13T01:39:22;10.43;;;3.75;;
43048;SDS011;28673;44.412;11.918;2023-07-13T01:41:48;17.15;;;3.50;;
43048;SDS011;28673;44.412;11.918;2023-07-13T01:44:14;20.60;;;4.18;;
43048;SDS011;28673;44.412;11.918;2023-07-13T01:46:40;13.93;;;2.85;;
43048;SDS011;28673;44.412;11.918;2023-07-13T01:49:06;24.70;;;3.53;;
43048;SDS011;28673;44.412;11.918;2023-07-13T01:51:32;19.77;;;4.25;;
43048;SDS011;28673;44.412;11.918;2023-07-13T01:53:58;12.68;;;3.13;;
43048;SDS011;28673;44.412;11.918;2023-07-13T01:56:23;10.30;;;3.33;;
43048;SDS011;28673;44.412;11.918;2023-07-13T01:58:49;9.48;;;3.25;;
43048;SDS011;28673;44.412;11.918;2023-07-13T02:01:16;14.23;;;3.97;;
43048;SDS011;28673;44.412;11.918;2023-07-13T02:03:42;12.23;;;3.50;;
43048;SDS011;28673;44.412;11.918;2023-07-13T02:06:07;18.67;;;4.25;;
43048;SDS011;28673;44.412;11.918;2023-07-13T02:08:33;12.85;;;2.80;;
43048;SDS011;28673;44.412;11.918;2023-07-13T02:11:00;13.63;;;3.42;;
43048;SDS011;28673;44.412;11.918;2023-07-13T02:13:28;6.00;;;3.00;;
43048;SDS011;28673;44.412;11.918;2023-07-13T02:15:54;17.15;;;4.45;;
43048;SDS011;28673;44.412;11.918;2023-07-13T02:18:20;10.45;;;4.53;;
43048;SDS011;28673;44.412;11.918;2023-07-13T02:20:46;20.85;;;5.45;;
43048;SDS011;28673;44.412;11.918;2023-07-13T02:23:12;17.25;;;6.72;;
43048;SDS011;28673;44.412;11.918;2023-07-13T02:25:37;17.23;;;6.18;;
43048;SDS011;28673;44.412;11.918;2023-07-13T02:28:03;12.63;;;6.85;;
43048;SDS011;28673;44.412;11.918;2023-07-13T02:30:30;14.15;;;8.77;;
43048;SDS011;28673;44.412;11.918;2023-07-13T02:32:57;15.48;;;9.05;;
43048;SDS011;28673;44.412;11.918;2023-07-13T02:35:23;26.23;;;7.68;;
43048;SDS011;28673;44.412;11.918;2023-07-13T02:37:49;14.15;;;8.52;;
43048;SDS011;28673;44.412;11.918;2023-07-13T02:40:15;16.50;;;8.98;;
43048;SDS011;28673;44.412;11.918;2023-07-13T02:42:41;16.23;;;10.27;;
43048;SDS011;28673;44.412;11.918;2023-07-13T02:45:07;14.95;;;8.77;;
43048;SDS011;28673;44.412;11.918;2023-07-13T02:47:35;24.70;;;10.60;;
43048;SDS011;28673;44.412;11.918;2023-07-13T02:50:02;22.08;;;9.55;;
43048;SDS011;28673;44.412;11.918;2023-07-13T02:52:29;14.25;;;8.40;;
43048;SDS011;28673;44.412;11.918;2023-07-13T02:54:55;21.98;;;9.48;;
43048;SDS011;28673;44.412;11.918;2023-07-13T02:57:20;15.77;;;8.70;;
43048;SDS011;28673;44.412;11.918;2023-07-13T02:59:46;17.77;;;9.38;;
43048;SDS011;28673;44.412;11.918;2023-07-13T03:02:12;20.65;;;10.70;;
43048;SDS011;28673;44.412;11.918;2023-07-13T03:04:38;17.25;;;8.20;;
43048;SDS011;28673;44.412;11.918;2023-07-13T03:07:06;13.32;;;9.70;;
43048;SDS011;28673;44.412;11.918;2023-07-13T03:09:35;15.60;;;8.57;;
43048;SDS011;28673;44.412;11.918;2023-07-13T03:12:04;20.42;;;11.82;;
43048;SDS011;28673;44.412;11.918;2023-07-13T03:14:31;15.90;;;7.93;;
43048;SDS011;28673;44.412;11.918;2023-07-13T03:16:59;14.32;;;8.30;;
43048;SDS011;28673;44.412;11.918;2023-07-13T03:19:28;18.52;;;8.10;;
43048;SDS011;28673;44.412;11.918;2023-07-13T03:21:55;15.98;;;8.63;;
43048;SDS011;28673;44.412;11.918;2023-07-13T03:24:21;19.80;;;10.02;;
43048;SDS011;28673;44.412;11.918;2023-07-13T03:26:50;11.20;;;8.00;;
43048;SDS011;28673;44.412;11.918;2023-07-13T03:29:17;14.38;;;8.07;;
43048;SDS011;28673;44.412;11.918;2023-07-13T03:31:44;19.10;;;9.65;;
43048;SDS011;28673;44.412;11.918;2023-07-13T03:34:10;19.77;;;10.55;;
43048;SDS011;28673;44.412;11.918;2023-07-13T03:36:37;19.20;;;9.88;;
43048;SDS011;28673;44.412;11.918;2023-07-13T03:39:07;25.70;;;10.07;;
43048;SDS011;28673;44.412;11.918;2023-07-13T03:41:44;11.50;;;8.70;;
43048;SDS011;28673;44.412;11.918;2023-07-13T03:44:11;16.88;;;8.00;;
43048;SDS011;28673;44.412;11.918;2023-07-13T03:46:38;13.77;;;9.77;;
43048;SDS011;28673;44.412;11.918;2023-07-13T03:49:04;15.48;;;9.85;;
43048;SDS011;28673;44.412;11.918;2023-07-13T03:51:32;18.00;;;8.57;;
43048;SDS011;28673;44.412;11.918;2023-07-13T03:53:59;16.13;;;7.85;;
43048;SDS011;28673;44.412;11.918;2023-07-13T03:56:25;15.93;;;10.10;;
43048;SDS011;28673;44.412;11.918;2023-07-13T03:58:52;8.23;;;7.07;;
43048;SDS011;28673;44.412;11.918;2023-07-13T04:01:21;24.30;;;7.20;;
43048;SDS011;28673;44.412;11.918;2023-07-13T04:03:50;15.93;;;8.60;;
43048;SDS011;28673;44.412;11.918;2023-07-13T04:06:26;13.90;;;7.00;;
43048;SDS011;28673;44.412;11.918;2023-07-13T04:08:58;14.77;;;9.60;;
43048;SDS011;28673;44.412;11.918;2023-07-13T04:11:27;12.57;;;7.43;;
43048;SDS011;28673;44.412;11.918;2023-07-13T04:13:57;12.05;;;7.80;;
43048;SDS011;28673;44.412;11.918;2023-07-13T04:16:24;11.68;;;6.78;;
43048;SDS011;28673;44.412;11.918;2023-07-13T04:18:51;14.55;;;6.75;;
43048;SDS011;28673;44.412;11.918;2023-07-13T04:21:29;15.52;;;7.78;;
43048;SDS011;28673;44.412;11.918;2023-07-13T04:23:56;16.73;;;7.75;;
43048;SDS011;28673;44.412;11.918;2023-07-13T04:26:23;13.82;;;8.30;;
43048;SDS011;28673;44.412;11.918;2023-07-13T04:28:49;10.95;;;7.80;;
43048;SDS011;28673;44.412;11.918;2023-07-13T04:31:16;12.52;;;8.35;;
43048;SDS011;28673;44.412;11.918;2023-07-13T04:33:42;12.23;;;8.13;;
43048;SDS011;28673;44.412;11.918;2023-07-13T04:36:08;20.55;;;8.35;;
43048;SDS011;28673;44.412;11.918;2023-07-13T04:38:35;12.95;;;7.45;;
43048;SDS011;28673;44.412;11.918;2023-07-13T04:41:03;16.45;;;7.13;;
43048;SDS011;28673;44.412;11.918;2023-07-13T04:43:31;14.75;;;7.38;;
43048;SDS011;28673;44.412;11.918;2023-07-13T04:46:02;19.77;;;8.68;;
43048;SDS011;28673;44.412;11.918;2023-07-13T04:48:30;12.35;;;7.45;;
43048;SDS011;28673;44.412;11.918;2023-07-13T04:50:56;10.75;;;7.70;;
43048;SDS011;28673;44.412;11.918;2023-07-13T04:53:23;12.13;;;7.28;;
43048;SDS011;28673;44.412;11.918;2023-07-13T04:55:49;17.92;;;7.40;;
43048;SDS011;28673;44.412;11.918;2023-07-13T04:58:15;13.35;;;7.78;;
43048;SDS011;28673;44.412;11.918;2023-07-13T05:00:41;10.05;;;6.72;;
43048;SDS011;28673;44.412;11.918;2023-07-13T05:03:07;19.95;;;8.00;;
43048;SDS011;28673;44.412;11.918;2023-07-13T05:05:33;17.48;;;6.97;;
43048;SDS011;28673;44.412;11.918;2023-07-13T05:07:59;23.05;;;8.10;;
43048;SDS011;28673;44.412;11.918;2023-07-13T05:10:25;11.98;;;7.30;;
43048;SDS011;28673;44.412;11.918;2023-07-13T05:12:51;16.63;;;6.75;;
43048;SDS011;28673;44.412;11.918;2023-07-13T05:15:17;13.30;;;6.53;;
43048;SDS011;28673;44.412;11.918;2023-07-13T05:17:49;22.30;;;9.10;;
43048;SDS011;28673;44.412;11.918;2023-07-13T05:20:15;11.25;;;7.60;;
43048;SDS011;28673;44.412;11.918;2023-07-13T05:22:42;10.93;;;9.13;;
43048;SDS011;28673;44.412;11.918;2023-07-13T05:25:08;14.13;;;6.10;;
43048;SDS011;28673;44.412;11.918;2023-07-13T05:27:35;10.20;;;7.30;;
43048;SDS011;28673;44.412;11.918;2023-07-13T05:30:01;13.77;;;7.70;;
43048;SDS011;28673;44.412;11.918;2023-07-13T05:32:28;14.35;;;7.63;;
43048;SDS011;28673;44.412;11.918;2023-07-13T05:34:54;14.20;;;7.47;;
43048;SDS011;28673;44.412;11.918;2023-07-13T05:37:20;11.23;;;6.40;;
43048;SDS011;28673;44.412;11.918;2023-07-13T05:39:46;10.80;;;6.78;;
43048;SDS011;28673;44.412;11.918;2023-07-13T05:42:12;11.40;;;6.55;;
43048;SDS011;28673;44.412;11.918;2023-07-13T05:44:38;13.57;;;8.15;;
43048;SDS011;28673;44.412;11.918;2023-07-13T05:47:04;17.88;;;7.07;;
43048;SDS011;28673;44.412;11.918;2023-07-13T05:49:30;13.02;;;6.60;;
43048;SDS011;28673;44.412;11.918;2023-07-13T05:51:56;16.85;;;7.10;;
43048;SDS011;28673;44.412;11.918;2023-07-13T05:54:22;14.48;;;8.05;;
43048;SDS011;28673;44.412;11.918;2023-07-13T05:56:48;11.27;;;7.40;;
43048;SDS011;28673;44.412;11.918;2023-07-13T05:59:14;15.43;;;6.85;;
43048;SDS011;28673;44.412;11.918;2023-07-13T06:01:40;14.73;;;6.30;;
43048;SDS011;28673;44.412;11.918;2023-07-13T06:04:06;11.13;;;6.15;;
43048;SDS011;28673;44.412;11.918;2023-07-13T06:06:32;16.00;;;6.47;;
43048;SDS011;28673;44.412;11.918;2023-07-13T06:08:58;13.57;;;5.60;;
43048;SDS011;28673;44.412;11.918;2023-07-13T06:11:25;13.02;;;6.63;;
43048;SDS011;28673;44.412;11.918;2023-07-13T06:13:52;8.50;;;5.97;;
43048;SDS011;28673;44.412;11.918;2023-07-13T06:16:19;12.75;;;7.07;;
43048;SDS011;28673;44.412;11.918;2023-07-13T06:18:45;10.82;;;6.00;;
43048;SDS011;28673;44.412;11.918;2023-07-13T06:21:23;11.50;;;6.00;;
43048;SDS011;28673;44.412;11.918;2023-07-13T06:23:50;15.27;;;5.78;;
43048;SDS011;28673;44.412;11.918;2023-07-13T06:26:17;17.52;;;5.43;;
43048;SDS011;28673;44.412;11.918;2023-07-13T06:28:44;12.85;;;5.45;;
43048;SDS011;28673;44.412;11.918;2023-07-13T06:31:11;12.40;;;4.97;;
43048;SDS011;28673;44.412;11.918;2023-07-13T06:33:37;8.90;;;5.82;;
43048;SDS011;28673;44.412;11.918;2023-07-13T06:36:04;14.63;;;5.13;;
43048;SDS011;28673;44.412;11.918;2023-07-13T06:38:31;9.35;;;5.40;;
43048;SDS011;28673;44.412;11.918;2023-07-13T06:41:02;11.73;;;5.68;;
43048;SDS011;28673;44.412;11.918;2023-07-13T06:43:29;12.27;;;5.03;;
43048;SDS011;28673;44.412;11.918;2023-07-13T06:45:57;13.60;;;5.28;;
43048;SDS011;28673;44.412;11.918;2023-07-13T06:48:22;17.95;;;5.70;;
43048;SDS011;28673;44.412;11.918;2023-07-13T06:50:49;10.82;;;5.30;;
43048;SDS011;28673;44.412;11.918;2023-07-13T06:53:17;11.38;;;4.65;;
43048;SDS011;28673;44.412;11.918;2023-07-13T06:55:44;11.38;;;5.63;;
43048;SDS011;28673;44.412;11.918;2023-07-13T06:58:10;15.43;;;5.43;;
43048;SDS011;28673;44.412;11.918;2023-07-13T07:00:36;11.07;;;5.25;;
43048;SDS011;28673;44.412;11.918;2023-07-13T07:03:02;11.63;;;4.53;;
43048;SDS011;28673;44.412;11.918;2023-07-13T07:05:28;12.13;;;4.40;;
43048;SDS011;28673;44.412;11.918;2023-07-13T07:07:54;5.50;;;3.75;;
43048;SDS011;28673;44.412;11.918;2023-07-13T07:10:21;12.50;;;5.00;;
43048;SDS011;28673;44.412;11.918;2023-07-13T07:12:47;18.92;;;4.93;;
43048;SDS011;28673;44.412;11.918;2023-07-13T07:15:13;9.43;;;4.75;;
43048;SDS011;28673;44.412;11.918;2023-07-13T07:17:39;7.70;;;3.72;;
43048;SDS011;28673;44.412;11.918;2023-07-13T07:20:05;8.65;;;3.65;;
43048;SDS011;28673;44.412;11.918;2023-07-13T07:22:31;6.60;;;3.92;;
43048;SDS011;28673;44.412;11.918;2023-07-13T07:24:57;9.20;;;4.40;;
43048;SDS011;28673;44.412;11.918;2023-07-13T07:27:24;11.52;;;3.90;;
43048;SDS011;28673;44.412;11.918;2023-07-13T07:29:50;10.02;;;4.18;;
43048;SDS011;28673;44.412;11.918;2023-07-13T07:32:16;17.90;;;4.53;;
43048;SDS011;28673;44.412;11.918;2023-07-13T07:34:42;7.22;;;3.78;;
43048;SDS011;28673;44.412;11.918;2023-07-13T07:37:09;12.05;;;4.72;;
43048;SDS011;28673;44.412;11.918;2023-07-13T07:39:37;16.60;;;4.40;;
43048;SDS011;28673;44.412;11.918;2023-07-13T07:42:03;16.25;;;4.55;;
43048;SDS011;28673;44.412;11.918;2023-07-13T07:44:30;7.60;;;3.42;;
43048;SDS011;28673;44.412;11.918;2023-07-13T07:46:56;11.48;;;3.67;;
43048;SDS011;28673;44.412;11.918;2023-07-13T07:49:22;10.35;;;3.08;;
43048;SDS011;28673;44.412;11.918;2023-07-13T07:51:48;7.07;;;3.83;;
43048;SDS011;28673;44.412;11.918;2023-07-13T07:54:14;14.45;;;4.25;;
43048;SDS011;28673;44.412;11.918;2023-07-13T07:56:40;8.25;;;4.25;;
43048;SDS011;28673;44.412;11.918;2023-07-13T07:59:06;8.60;;;3.85;;
43048;SDS011;28673;44.412;11.918;2023-07-13T08:01:32;12.75;;;3.67;;
43048;SDS011;28673;44.412;11.918;2023-07-13T08:03:58;12.70;;;3.53;;
43048;SDS011;28673;44.412;11.918;2023-07-13T08:06:24;18.00;;;4.95;;
43048;SDS011;28673;44.412;11.918;2023-07-13T08:08:50;12.63;;;3.75;;
43048;SDS011;28673;44.412;11.918;2023-07-13T08:11:16;12.40;;;3.50;;
43048;SDS011;28673;44.412;11.918;2023-07-13T08:13:43;11.27;;;3.30;;
43048;SDS011;28673;44.412;11.918;2023-07-13T08:16:09;17.73;;;3.88;;
43048;SDS011;28673;44.412;11.918;2023-07-13T08:18:35;12.77;;;4.35;;
43048;SDS011;28673;44.412;11.918;2023-07-13T08:21:07;11.38;;;3.85;;
43048;SDS011;28673;44.412;11.918;2023-07-13T08:23:34;9.75;;;4.18;;
43048;SDS011;28673;44.412;11.918;2023-07-13T08:26:01;7.40;;;3.80;;
43048;SDS011;28673;44.412;11.918;2023-07-13T08:28:28;12.90;;;4.32;;
43048;SDS011;28673;44.412;11.918;2023-07-13T08:30:54;7.35;;;3.47;;
43048;SDS011;28673;44.412;11.918;2023-07-13T08:33:20;12.05;;;4.20;;
43048;SDS011;28673;44.412;11.918;2023-07-13T08:35:49;11.77;;;3.90;;
43048;SDS011;28673;44.412;11.918;2023-07-13T08:38:16;5.40;;;3.33;;
43048;SDS011;28673;44.412;11.918;2023-07-13T08:40:42;19.38;;;3.92;;
43048;SDS011;28673;44.412;11.918;2023-07-13T08:43:16;10.68;;;4.50;;
43048;SDS011;28673;44.412;11.918;2023-07-13T08:45:49;9.90;;;4.30;;
43048;SDS011;28673;44.412;11.918;2023-07-13T08:48:25;17.92;;;4.35;;
43048;SDS011;28673;44.412;11.918;2023-07-13T08:53:23;10.18;;;4.45;;
43048;SDS011;28673;44.412;11.918;2023-07-13T08:56:09;9.30;;;4.07;;
43048;SDS011;28673;44.412;11.918;2023-07-13T08:58:41;14.20;;;5.10;;
43048;SDS011;28673;44.412;11.918;2023-07-13T09:09:22;12.80;;;4.10;;
43048;SDS011;28673;44.412;11.918;2023-07-13T09:12:14;30.85;;;6.38;;
43048;SDS011;28673;44.412;11.918;2023-07-13T09:14:46;44.67;;;9.30;;
43048;SDS011;28673;44.412;11.918;2023-07-13T09:17:20;16.25;;;4.95;;
43048;SDS011;28673;44.412;11.918;2023-07-13T09:20:00;24.63;;;5.05;;
43048;SDS011;28673;44.412;11.918;2023-07-13T09:22:32;11.00;;;4.35;;
43048;SDS011;28673;44.412;11.918;2023-07-13T09:25:05;17.52;;;4.85;;
43048;SDS011;28673;44.412;11.918;2023-07-13T09:27:38;18.35;;;4.40;;
43048;SDS011;28673;44.412;11.918;2023-07-13T09:32:42;14.35;;;4.88;;
43048;SDS011;28673;44.412;11.918;2023-07-13T09:35:14;15.25;;;4.32;;
43048;SDS011;28673;44.412;11.918;2023-07-13T09:37:44;8.50;;;4.10;;
43048;SDS011;28673;44.412;11.918;2023-07-13T09:40:21;8.40;;;4.88;;
43048;SDS011;28673;44.412;11.918;2023-07-13T09:42:55;13.77;;;4.65;;
43048;SDS011;28673;44.412;11.918;2023-07-13T09:45:27;18.13;;;4.38;;
43048;SDS011;28673;44.412;11.918;2023-07-13T09:48:23;9.95;;;5.18;;
43048;SDS011;28673;44.412;11.918;2023-07-13T09:51:14;8.00;;;4.32;;
43048;SDS011;28673;44.412;11.918;2023-07-13T09:53:43;13.63;;;5.45;;
43048;SDS011;28673;44.412;11.918;2023-07-13T09:56:26;15.18;;;4.78;;
43048;SDS011;28673;44.412;11.918;2023-07-13T09:58:59;8.13;;;4.47;;
43048;SDS011;28673;44.412;11.918;2023-07-13T10:01:35;8.40;;;4.43;;
43048;SDS011;28673;44.412;11.918;2023-07-13T10:04:11;9.73;;;4.35;;
43048;SDS011;28673;44.412;11.918;2023-07-13T10:06:41;9.02;;;4.20;;
43048;SDS011;28673;44.412;11.918;2023-07-13T10:09:14;15.52;;;4.78;;
43048;SDS011;28673;44.412;11.918;2023-07-13T10:11:46;9.18;;;4.15;;
43048;SDS011;28673;44.412;11.918;2023-07-13T10:14:17;15.68;;;4.90;;
43048;SDS011;28673;44.412;11.918;2023-07-13T10:16:52;12.88;;;4.70;;
43048;SDS011;28673;44.412;11.918;2023-07-13T10:19:28;15.57;;;5.00;;
43048;SDS011;28673;44.412;11.918;2023-07-13T10:22:42;17.17;;;6.70;;
43048;SDS011;28673;44.412;11.918;2023-07-13T10:24:58;16.15;;;4.60;;
43048;SDS011;28673;44.412;11.918;2023-07-13T10:27:33;17.67;;;6.10;;
43048;SDS011;28673;44.412;11.918;2023-07-13T10:32:29;21.27;;;7.78;;
43048;SDS011;28673;44.412;11.918;2023-07-13T10:34:55;12.38;;;6.75;;
43048;SDS011;28673;44.412;11.918;2023-07-13T10:37:26;15.90;;;7.40;;
43048;SDS011;28673;44.412;11.918;2023-07-13T10:39:56;14.25;;;8.02;;
43048;SDS011;28673;44.412;11.918;2023-07-13T10:42:28;19.83;;;7.10;;
43048;SDS011;28673;44.412;11.918;2023-07-13T10:45:02;14.60;;;4.38;;
43048;SDS011;28673;44.412;11.918;2023-07-13T10:47:43;8.68;;;3.38;;
43048;SDS011;28673;44.412;11.918;2023-07-13T10:50:15;12.02;;;3.42;;
43048;SDS011;28673;44.412;11.918;2023-07-13T10:52:49;3.67;;;2.13;;
43048;SDS011;28673;44.412;11.918;2023-07-13T10:58:12;3.80;;;1.85;;
43048;SDS011;28673;44.412;11.918;2023-07-13T11:00:46;3.63;;;2.00;;
43048;SDS011;28673;44.412;11.918;2023-07-13T11:03:22;5.68;;;2.10;;
43048;SDS011;28673;44.412;11.918;2023-07-13T11:05:49;3.53;;;1.65;;
43048;SDS011;28673;44.412;11.918;2023-07-13T11:08:33;2.08;;;1.38;;
43048;SDS011;28673;44.412;11.918;2023-07-13T11:11:37;2.97;;;1.30;;
43048;SDS011;28673;44.412;11.918;2023-07-13T11:14:04;1.25;;;0.80;;
43048;SDS011;28673;44.412;11.918;2023-07-13T11:16:50;3.20;;;1.00;;
43048;SDS011;28673;44.412;11.918;2023-07-13T11:24:52;4.75;;;1.10;;
43048;SDS011;28673;44.412;11.918;2023-07-13T11:27:21;2.25;;;0.70;;
43048;SDS011;28673;44.412;11.918;2023-07-13T11:29:48;3.80;;;0.82;;
43048;SDS011;28673;44.412;11.918;2023-07-13T11:32:22;1.15;;;0.70;;
43048;SDS011;28673;44.412;11.918;2023-07-13T11:34:52;1.23;;;0.88;;
43048;SDS011;28673;44.412;11.918;2023-07-13T11:37:19;1.27;;;0.45;;
43048;SDS011;28673;44.412;11.918;2023-07-13T11:39:46;8.98;;;1.00;;
43048;SDS011;28673;44.412;11.918;2023-07-13T11:42:15;3.65;;;0.85;;
43048;SDS011;28673;44.412;11.918;2023-07-13T11:44:43;1.58;;;0.70;;
43048;SDS011;28673;44.412;11.918;2023-07-13T11:47:19;0.88;;;0.63;;
43048;SDS011;28673;44.412;11.918;2023-07-13T11:49:52;5.63;;;1.13;;
43048;SDS011;28673;44.412;11.918;2023-07-13T11:52:25;1.42;;;0.40;;
43048;SDS011;28673;44.412;11.918;2023-07-13T11:54:57;2.67;;;1.20;;
43048;SDS011;28673;44.412;11.918;2023-07-13T12:03:43;1.10;;;0.70;;
43048;SDS011;28673;44.412;11.918;2023-07-13T12:06:28;3.17;;;0.80;;
43048;SDS011;28673;44.412;11.918;2023-07-13T12:09:10;2.92;;;0.85;;
43048;SDS011;28673;44.412;11.918;2023-07-13T12:11:39;3.13;;;0.50;;
43048;SDS011;28673;44.412;11.918;2023-07-13T12:14:12;1.45;;;0.70;;
43048;SDS011;28673;44.412;11.918;2023-07-13T12:16:42;3.58;;;0.80;;
43048;SDS011;28673;44.412;11.918;2023-07-13T12:19:17;2.72;;;0.52;;
43048;SDS011;28673;44.412;11.918;2023-07-13T12:21:45;2.90;;;0.75;;
43048;SDS011;28673;44.412;11.918;2023-07-13T12:24:16;2.85;;;0.77;;
43048;SDS011;28673;44.412;11.918;2023-07-13T12:27:15;2.25;;;0.70;;
43048;SDS011;28673;44.412;11.918;2023-07-13T12:29:49;1.10;;;0.98;;
43048;SDS011;28673;44.412;11.918;2023-07-13T12:32:18;3.45;;;0.90;;
43048;SDS011;28673;44.412;11.918;2023-07-13T12:34:52;3.17;;;1.00;;
43048;SDS011;28673;44.412;11.918;2023-07-13T12:37:22;2.25;;;1.63;;
43048;SDS011;28673;44.412;11.918;2023-07-13T12:39:53;2.50;;;0.63;;
43048;SDS011;28673;44.412;11.918;2023-07-13T12:42:23;1.48;;;0.68;;
43048;SDS011;28673;44.412;11.918;2023-07-13T12:47:28;2.38;;;0.80;;
43048;SDS011;28673;44.412;11.918;2023-07-13T12:50:08;3.33;;;1.00;;
43048;SDS011;28673;44.412;11.918;2023-07-13T12:52:53;1.30;;;0.82;;
43048;SDS011;28673;44.412;11.918;2023-07-13T12:55:25;1.98;;;0.85;;
43048;SDS011;28673;44.412;11.918;2023-07-13T12:57:56;1.25;;;0.85;;
43048;SDS011;28673;44.412;11.918;2023-07-13T13:00:29;2.65;;;1.20;;
43048;SDS011;28673;44.412;11.918;2023-07-13T13:03:01;2.80;;;0.90;;
43048;SDS011;28673;44.412;11.918;2023-07-13T13:05:37;2.15;;;1.38;;
43048;SDS011;28673;44.412;11.918;2023-07-13T13:08:04;2.38;;;1.30;;
43048;SDS011;28673;44.412;11.918;2023-07-13T13:10:46;3.72;;;0.85;;
43048;SDS011;28673;44.412;11.918;2023-07-13T13:13:15;5.50;;;1.40;;
43048;SDS011;28673;44.412;11.918;2023-07-13T13:15:41;5.25;;;1.27;;
43048;SDS011;28673;44.412;11.918;2023-07-13T13:18:14;5.65;;;1.40;;
43048;SDS011;28673;44.412;11.918;2023-07-13T13:20:45;4.07;;;1.40;;
43048;SDS011;28673;44.412;11.918;2023-07-13T13:23:15;4.30;;;1.48;;
43048;SDS011;28673;44.412;11.918;2023-07-13T13:25:43;3.00;;;1.30;;
43048;SDS011;28673;44.412;11.918;2023-07-13T13:28:14;4.88;;;1.58;;
43048;SDS011;28673;44.412;11.918;2023-07-13T13:30:42;2.10;;;1.40;;
43048;SDS011;28673;44.412;11.918;2023-07-13T13:33:10;4.28;;;1.63;;
43048;SDS011;28673;44.412;11.918;2023-07-13T13:35:37;4.05;;;1.65;;
43048;SDS011;28673;44.412;11.918;2023-07-13T13:38:08;8.13;;;1.88;;
43048;SDS011;28673;44.412;11.918;2023-07-13T13:40:39;4.85;;;2.08;;
43048;SDS011;28673;44.412;11.918;2023-07-13T13:43:40;5.65;;;1.65;;
43048;SDS011;28673;44.412;11.918;2023-07-13T13:45:59;4.85;;;1.80;;
43048;SDS011;28673;44.412;11.918;2023-07-13T13:48:31;9.18;;;1.92;;
43048;SDS011;28673;44.412;11.918;2023-07-13T13:50:59;7.35;;;2.35;;
43048;SDS011;28673;44.412;11.918;2023-07-13T13:53:34;4.63;;;2.40;;
43048;SDS011;28673;44.412;11.918;2023-07-13T13:56:01;5.75;;;2.13;;
43048;SDS011;28673;44.412;11.918;2023-07-13T13:58:27;9.75;;;2.55;;
43048;SDS011;28673;44.412;11.918;2023-07-13T14:00:53;4.70;;;1.80;;
43048;SDS011;28673;44.412;11.918;2023-07-13T14:03:19;6.95;;;2.67;;
43048;SDS011;28673;44.412;11.918;2023-07-13T14:05:46;5.97;;;2.20;;
43048;SDS011;28673;44.412;11.918;2023-07-13T14:08:17;8.88;;;2.55;;
43048;SDS011;28673;44.412;11.918;2023-07-13T14:10:46;5.90;;;2.47;;
43048;SDS011;28673;44.412;11.918;2023-07-13T14:13:17;6.13;;;2.10;;
43048;SDS011;28673;44.412;11.918;2023-07-13T14:15:46;5.45;;;2.17;;
43048;SDS011;28673;44.412;11.918;2023-07-13T14:18:13;5.43;;;1.80;;
43048;SDS011;28673;44.412;11.918;2023-07-13T14:20:43;2.95;;;1.75;;
43048;SDS011;28673;44.412;11.918;2023-07-13T14:23:12;6.00;;;2.45;;
43048;SDS011;28673;44.412;11.918;2023-07-13T14:25:39;10.00;;;2.33;;
43048;SDS011;28673;44.412;11.918;2023-07-13T14:28:24;4.18;;;2.65;;
43048;SDS011;28673;44.412;11.918;2023-07-13T14:30:52;6.75;;;2.13;;
43048;SDS011;28673;44.412;11.918;2023-07-13T14:33:20;4.80;;;2.65;;
43048;SDS011;28673;44.412;11.918;2023-07-13T14:35:46;7.85;;;2.53;;
43048;SDS011;28673;44.412;11.918;2023-07-13T14:38:14;3.13;;;2.17;;
43048;SDS011;28673;44.412;11.918;2023-07-13T14:40:43;6.03;;;2.22;;
43048;SDS011;28673;44.412;11.918;2023-07-13T14:43:10;13.02;;;2.53;;
43048;SDS011;28673;44.412;11.918;2023-07-13T14:45:38;6.55;;;2.90;;
43048;SDS011;28673;44.412;11.918;2023-07-13T14:48:24;4.85;;;3.10;;
43048;SDS011;28673;44.412;11.918;2023-07-13T14:50:54;5.68;;;2.60;;
43048;SDS011;28673;44.412;11.918;2023-07-13T14:53:22;5.20;;;1.98;;
43048;SDS011;28673;44.412;11.918;2023-07-13T14:55:50;5.05;;;2.50;;
43048;SDS011;28673;44.412;11.918;2023-07-13T14:58:16;4.75;;;2.47;;
43048;SDS011;28673;44.412;11.918;2023-07-13T15:00:41;7.57;;;2.70;;
43048;SDS011;28673;44.412;11.918;2023-07-13T15:03:14;11.00;;;3.05;;
43048;SDS011;28673;44.412;11.918;2023-07-13T15:05:47;7.50;;;2.67;;
43048;SDS011;28673;44.412;11.918;2023-07-13T15:08:14;8.30;;;2.53;;
43048;SDS011;28673;44.412;11.918;2023-07-13T15:10:40;5.45;;;2.70;;
43048;SDS011;28673;44.412;11.918;2023-07-13T15:13:20;16.30;;;3.30;;
43048;SDS011;28673;44.412;11.918;2023-07-13T15:15:47;6.13;;;2.08;;
43048;SDS011;28673;44.412;11.918;2023-07-13T15:18:15;6.25;;;2.65;;
43048;SDS011;28673;44.412;11.918;2023-07-13T15:20:44;9.27;;;3.00;;